sensor_id;sensor_type;location;lat;lon;timestamp;P1;durP1;ratioP1;P2;durP2;ratioP2
29006;SDS011;16104;48.642;9.008;2023-06-14T01:05:15;5.90;;;4.18;;
29006;SDS011;16104;48.642;9.008;2023-06-14T01:10:21;4.03;;;3.63;;
29006;SDS011;16104;48.642;9.008;2023-06-14T01:15:27;4.57;;;3.88;;
29006;SDS011;16104;48.642;9.008;2023-06-14T02:01:41;5.10;;;4.10;;
29006;SDS011;16104;48.642;9.008;2023-06-14T02:06:37;5.90;;;3.75;;
29006;SDS011;16104;48.642;9.008;2023-06-14T02:11:33;5.05;;;4.00;;
29006;SDS011;16104;48.642;9.008;2023-06-14T03:02:17;4.53;;;4.13;;
29006;SDS011;16104;48.642;9.008;2023-06-14T03:07:12;4.85;;;4.10;;
29006;SDS011;16104;48.642;9.008;2023-06-14T03:12:09;5.15;;;3.70;;
29006;SDS011;16104;48.642;9.008;2023-06-14T03:17:04;5.07;;;4.40;;
29006;SDS011;16104;48.642;9.008;2023-06-14T03:22:00;6.53;;;4.35;;
29006;SDS011;16104;48.642;9.008;2023-06-14T03:26:57;4.57;;;3.95;;
29006;SDS011;16104;48.642;9.008;2023-06-14T03:31:59;5.82;;;4.57;;
29006;SDS011;16104;48.642;9.008;2023-06-14T03:36:56;5.28;;;4.60;;
29006;SDS011;16104;48.642;9.008;2023-06-14T03:41:52;7.28;;;4.90;;
29006;SDS011;16104;48.642;9.008;2023-06-14T03:46:48;6.35;;;4.32;;
29006;SDS011;16104;48.642;9.008;2023-06-14T03:51:43;6.18;;;4.82;;
29006;SDS011;16104;48.642;9.008;2023-06-14T03:56:39;5.10;;;4.05;;
29006;SDS011;16104;48.642;9.008;2023-06-14T04:01:35;6.72;;;3.92;;
29006;SDS011;16104;48.642;9.008;2023-06-14T04:06:31;22.90;;;4.85;;
29006;SDS011;16104;48.642;9.008;2023-06-14T04:11:30;23.50;;;5.45;;
29006;SDS011;16104;48.642;9.008;2023-06-14T04:16:26;6.43;;;4.80;;
29006;SDS011;16104;48.642;9.008;2023-06-14T04:21:22;50.45;;;6.15;;
29006;SDS011;16104;48.642;9.008;2023-06-14T04:26:18;11.05;;;5.22;;
29006;SDS011;16104;48.642;9.008;2023-06-14T04:31:15;5.30;;;4.07;;
29006;SDS011;16104;48.642;9.008;2023-06-14T04:36:11;27.48;;;5.55;;
29006;SDS011;16104;48.642;9.008;2023-06-14T04:41:07;18.10;;;4.93;;
29006;SDS011;16104;48.642;9.008;2023-06-14T04:46:06;8.50;;;4.50;;
29006;SDS011;16104;48.642;9.008;2023-06-14T04:51:05;9.33;;;4.70;;
29006;SDS011;16104;48.642;9.008;2023-06-14T04:56:02;6.32;;;4.40;;
29006;SDS011;16104;48.642;9.008;2023-06-14T05:00:59;19.90;;;4.68;;
29006;SDS011;16104;48.642;9.008;2023-06-14T05:05:54;14.13;;;5.53;;
29006;SDS011;16104;48.642;9.008;2023-06-14T05:10:50;21.25;;;6.00;;
29006;SDS011;16104;48.642;9.008;2023-06-14T05:15:46;21.42;;;5.60;;
29006;SDS011;16104;48.642;9.008;2023-06-14T05:20:42;10.50;;;4.55;;
29006;SDS011;16104;48.642;9.008;2023-06-14T05:25:37;5.65;;;4.50;;
29006;SDS011;16104;48.642;9.008;2023-06-14T05:30:33;9.32;;;5.20;;
29006;SDS011;16104;48.642;9.008;2023-06-14T05:35:28;10.50;;;4.40;;
29006;SDS011;16104;48.642;9.008;2023-06-14T05:40:24;10.00;;;5.00;;
29006;SDS011;16104;48.642;9.008;2023-06-14T05:45:19;9.80;;;5.20;;
29006;SDS011;16104;48.642;9.008;2023-06-14T05:50:15;12.02;;;4.85;;
29006;SDS011;16104;48.642;9.008;2023-06-14T05:55:11;8.05;;;4.35;;
29006;SDS011;16104;48.642;9.008;2023-06-14T06:00:07;5.13;;;3.60;;
29006;SDS011;16104;48.642;9.008;2023-06-14T06:05:09;6.47;;;4.00;;
29006;SDS011;16104;48.642;9.008;2023-06-14T06:10:05;7.30;;;3.72;;
29006;SDS011;16104;48.642;9.008;2023-06-14T06:15:01;5.63;;;4.20;;
29006;SDS011;16104;48.642;9.008;2023-06-14T06:19:57;10.05;;;4.57;;
29006;SDS011;16104;48.642;9.008;2023-06-14T06:24:53;6.40;;;3.88;;
29006;SDS011;16104;48.642;9.008;2023-06-14T06:29:48;10.23;;;3.92;;
29006;SDS011;16104;48.642;9.008;2023-06-14T06:34:44;4.78;;;3.97;;
29006;SDS011;16104;48.642;9.008;2023-06-14T06:39:40;4.38;;;3.55;;
29006;SDS011;16104;48.642;9.008;2023-06-14T06:44:35;5.25;;;3.42;;
29006;SDS011;16104;48.642;9.008;2023-06-14T06:49:31;4.18;;;3.55;;
29006;SDS011;16104;48.642;9.008;2023-06-14T06:54:26;5.90;;;3.75;;
29006;SDS011;16104;48.642;9.008;2023-06-14T06:59:22;5.75;;;3.80;;
29006;SDS011;16104;48.642;9.008;2023-06-14T07:04:18;4.85;;;3.30;;
29006;SDS011;16104;48.642;9.008;2023-06-14T07:09:13;5.55;;;3.20;;
29006;SDS011;16104;48.642;9.008;2023-06-14T07:14:11;4.75;;;4.25;;
29006;SDS011;16104;48.642;9.008;2023-06-14T07:19:06;7.05;;;3.80;;
29006;SDS011;16104;48.642;9.008;2023-06-14T07:24:05;4.15;;;3.60;;
29006;SDS011;16104;48.642;9.008;2023-06-14T07:29:01;5.32;;;3.58;;
29006;SDS011;16104;48.642;9.008;2023-06-14T07:33:57;5.45;;;3.80;;
29006;SDS011;16104;48.642;9.008;2023-06-14T07:38:53;4.10;;;3.70;;
29006;SDS011;16104;48.642;9.008;2023-06-14T07:43:49;12.57;;;4.00;;
29006;SDS011;16104;48.642;9.008;2023-06-14T07:48:44;6.95;;;3.67;;
29006;SDS011;16104;48.642;9.008;2023-06-14T07:53:40;8.50;;;3.55;;
29006;SDS011;16104;48.642;9.008;2023-06-14T07:58:36;3.83;;;3.05;;
29006;SDS011;16104;48.642;9.008;2023-06-14T08:03:32;5.32;;;3.65;;
29006;SDS011;16104;48.642;9.008;2023-06-14T08:08:27;4.45;;;3.38;;
29006;SDS011;16104;48.642;9.008;2023-06-14T08:13:23;5.97;;;3.33;;
29006;SDS011;16104;48.642;9.008;2023-06-14T08:18:18;6.72;;;3.42;;
29006;SDS011;16104;48.642;9.008;2023-06-14T08:23:14;13.75;;;3.40;;
29006;SDS011;16104;48.642;9.008;2023-06-14T08:28:13;6.68;;;3.60;;
29006;SDS011;16104;48.642;9.008;2023-06-14T08:33:09;6.53;;;3.55;;
29006;SDS011;16104;48.642;9.008;2023-06-14T08:38:04;5.22;;;3.50;;
29006;SDS011;16104;48.642;9.008;2023-06-14T08:43:00;7.78;;;3.95;;
29006;SDS011;16104;48.642;9.008;2023-06-14T08:47:55;5.05;;;3.60;;
29006;SDS011;16104;48.642;9.008;2023-06-14T08:52:55;8.65;;;3.92;;
29006;SDS011;16104;48.642;9.008;2023-06-14T08:57:55;5.75;;;3.75;;
29006;SDS011;16104;48.642;9.008;2023-06-14T09:02:54;4.47;;;3.85;;
29006;SDS011;16104;48.642;9.008;2023-06-14T09:07:53;10.48;;;3.60;;
29006;SDS011;16104;48.642;9.008;2023-06-14T09:12:55;7.18;;;3.60;;
29006;SDS011;16104;48.642;9.008;2023-06-14T09:17:51;4.53;;;3.70;;
29006;SDS011;16104;48.642;9.008;2023-06-14T09:22:46;5.68;;;3.75;;
29006;SDS011;16104;48.642;9.008;2023-06-14T09:27:42;6.80;;;3.47;;
29006;SDS011;16104;48.642;9.008;2023-06-14T09:32:38;6.47;;;4.15;;
29006;SDS011;16104;48.642;9.008;2023-06-14T09:37:34;7.72;;;4.07;;
29006;SDS011;16104;48.642;9.008;2023-06-14T09:42:32;4.93;;;3.92;;
29006;SDS011;16104;48.642;9.008;2023-06-14T09:47:30;6.70;;;3.97;;
29006;SDS011;16104;48.642;9.008;2023-06-14T09:52:26;4.38;;;3.97;;
29006;SDS011;16104;48.642;9.008;2023-06-14T09:57:23;7.80;;;3.50;;
29006;SDS011;16104;48.642;9.008;2023-06-14T10:07:20;8.40;;;3.58;;
29006;SDS011;16104;48.642;9.008;2023-06-14T10:12:17;6.32;;;3.50;;
29006;SDS011;16104;48.642;9.008;2023-06-14T10:22:35;5.78;;;3.53;;
29006;SDS011;16104;48.642;9.008;2023-06-14T10:27:37;7.70;;;3.85;;
29006;SDS011;16104;48.642;9.008;2023-06-14T10:32:33;4.65;;;3.30;;
29006;SDS011;16104;48.642;9.008;2023-06-14T10:37:29;3.47;;;3.00;;
29006;SDS011;16104;48.642;9.008;2023-06-14T10:42:29;7.53;;;3.63;;
29006;SDS011;16104;48.642;9.008;2023-06-14T10:47:34;5.97;;;3.60;;
29006;SDS011;16104;48.642;9.008;2023-06-14T10:52:32;4.65;;;3.30;;
29006;SDS011;16104;48.642;9.008;2023-06-14T10:57:30;10.73;;;3.92;;
29006;SDS011;16104;48.642;9.008;2023-06-14T11:02:39;4.82;;;3.40;;
29006;SDS011;16104;48.642;9.008;2023-06-14T11:07:53;9.35;;;4.85;;
29006;SDS011;16104;48.642;9.008;2023-06-14T11:12:59;7.43;;;4.57;;
29006;SDS011;16104;48.642;9.008;2023-06-14T11:17:55;13.95;;;4.32;;
29006;SDS011;16104;48.642;9.008;2023-06-14T11:22:53;4.97;;;3.70;;
29006;SDS011;16104;48.642;9.008;2023-06-14T11:27:49;4.45;;;3.60;;
29006;SDS011;16104;48.642;9.008;2023-06-14T11:32:46;4.78;;;3.75;;
29006;SDS011;16104;48.642;9.008;2023-06-14T11:37:43;3.90;;;3.50;;
29006;SDS011;16104;48.642;9.008;2023-06-14T11:42:42;10.27;;;3.63;;
29006;SDS011;16104;48.642;9.008;2023-06-14T11:47:38;4.13;;;3.70;;
29006;SDS011;16104;48.642;9.008;2023-06-14T11:52:35;5.07;;;3.67;;
29006;SDS011;16104;48.642;9.008;2023-06-14T11:57:34;8.80;;;3.47;;
29006;SDS011;16104;48.642;9.008;2023-06-14T12:02:31;4.97;;;3.45;;
29006;SDS011;16104;48.642;9.008;2023-06-14T12:07:26;3.72;;;3.25;;
29006;SDS011;16104;48.642;9.008;2023-06-14T12:12:23;4.60;;;3.10;;
29006;SDS011;16104;48.642;9.008;2023-06-14T12:17:20;6.15;;;3.40;;
29006;SDS011;16104;48.642;9.008;2023-06-14T12:22:16;4.68;;;3.22;;
29006;SDS011;16104;48.642;9.008;2023-06-14T12:27:12;6.22;;;3.58;;
29006;SDS011;16104;48.642;9.008;2023-06-14T12:32:10;5.03;;;3.50;;
29006;SDS011;16104;48.642;9.008;2023-06-14T12:37:06;4.60;;;3.53;;
29006;SDS011;16104;48.642;9.008;2023-06-14T12:42:01;4.25;;;3.30;;
29006;SDS011;16104;48.642;9.008;2023-06-14T12:46:59;5.28;;;3.40;;
29006;SDS011;16104;48.642;9.008;2023-06-14T12:51:54;5.15;;;3.42;;
29006;SDS011;16104;48.642;9.008;2023-06-14T12:56:50;3.83;;;3.20;;
29006;SDS011;16104;48.642;9.008;2023-06-14T13:01:46;3.63;;;3.30;;
29006;SDS011;16104;48.642;9.008;2023-06-14T13:06:45;4.45;;;3.20;;
29006;SDS011;16104;48.642;9.008;2023-06-14T13:11:40;5.00;;;3.10;;
29006;SDS011;16104;48.642;9.008;2023-06-14T13:16:36;9.82;;;3.55;;
29006;SDS011;16104;48.642;9.008;2023-06-14T13:21:31;6.45;;;3.30;;
29006;SDS011;16104;48.642;9.008;2023-06-14T13:26:27;7.93;;;3.40;;
29006;SDS011;16104;48.642;9.008;2023-06-14T13:31:22;3.47;;;3.13;;
29006;SDS011;16104;48.642;9.008;2023-06-14T13:36:18;4.20;;;3.20;;
29006;SDS011;16104;48.642;9.008;2023-06-14T13:41:13;4.47;;;3.40;;
29006;SDS011;16104;48.642;9.008;2023-06-14T13:46:09;5.80;;;3.05;;
29006;SDS011;16104;48.642;9.008;2023-06-14T13:51:05;6.00;;;3.30;;
29006;SDS011;16104;48.642;9.008;2023-06-14T13:56:00;3.60;;;2.92;;
29006;SDS011;16104;48.642;9.008;2023-06-14T14:00:56;4.13;;;3.20;;
29006;SDS011;16104;48.642;9.008;2023-06-14T14:05:54;4.50;;;3.08;;
29006;SDS011;16104;48.642;9.008;2023-06-14T14:10:50;5.88;;;2.95;;
29006;SDS011;16104;48.642;9.008;2023-06-14T14:15:45;4.70;;;3.10;;
29006;SDS011;16104;48.642;9.008;2023-06-14T14:20:41;3.40;;;3.10;;
29006;SDS011;16104;48.642;9.008;2023-06-14T14:25:36;4.65;;;3.05;;
29006;SDS011;16104;48.642;9.008;2023-06-14T14:30:32;5.50;;;3.22;;
29006;SDS011;16104;48.642;9.008;2023-06-14T14:35:27;3.40;;;3.10;;
29006;SDS011;16104;48.642;9.008;2023-06-14T14:40:25;5.33;;;3.33;;
29006;SDS011;16104;48.642;9.008;2023-06-14T14:45:21;3.22;;;2.90;;
29006;SDS011;16104;48.642;9.008;2023-06-14T14:50:17;5.57;;;3.00;;
29006;SDS011;16104;48.642;9.008;2023-06-14T14:55:13;3.60;;;3.25;;
29006;SDS011;16104;48.642;9.008;2023-06-14T15:00:08;3.67;;;3.13;;
29006;SDS011;16104;48.642;9.008;2023-06-14T15:05:04;12.40;;;3.10;;
29006;SDS011;16104;48.642;9.008;2023-06-14T15:10:00;4.00;;;2.83;;
29006;SDS011;16104;48.642;9.008;2023-06-14T15:14:56;3.30;;;2.95;;
29006;SDS011;16104;48.642;9.008;2023-06-14T15:19:52;3.17;;;2.78;;
29006;SDS011;16104;48.642;9.008;2023-06-14T15:24:47;3.30;;;3.00;;
29006;SDS011;16104;48.642;9.008;2023-06-14T15:29:43;4.70;;;2.97;;
29006;SDS011;16104;48.642;9.008;2023-06-14T15:34:39;4.40;;;3.00;;
29006;SDS011;16104;48.642;9.008;2023-06-14T15:39:35;5.82;;;3.22;;
29006;SDS011;16104;48.642;9.008;2023-06-14T15:44:30;3.42;;;2.97;;
29006;SDS011;16104;48.642;9.008;2023-06-14T15:49:26;3.58;;;2.92;;
29006;SDS011;16104;48.642;9.008;2023-06-14T15:54:21;7.05;;;2.90;;
29006;SDS011;16104;48.642;9.008;2023-06-14T15:59:17;5.10;;;3.22;;
29006;SDS011;16104;48.642;9.008;2023-06-14T16:04:12;5.10;;;2.88;;
29006;SDS011;16104;48.642;9.008;2023-06-14T16:09:08;5.28;;;3.17;;
29006;SDS011;16104;48.642;9.008;2023-06-14T16:14:03;5.85;;;3.45;;
29006;SDS011;16104;48.642;9.008;2023-06-14T16:18:59;5.70;;;3.05;;
29006;SDS011;16104;48.642;9.008;2023-06-14T16:23:54;6.05;;;3.25;;
29006;SDS011;16104;48.642;9.008;2023-06-14T16:28:50;3.15;;;2.92;;
29006;SDS011;16104;48.642;9.008;2023-06-14T16:33:45;3.33;;;2.72;;
29006;SDS011;16104;48.642;9.008;2023-06-14T16:38:41;3.65;;;2.83;;
29006;SDS011;16104;48.642;9.008;2023-06-14T16:43:37;3.28;;;2.95;;
29006;SDS011;16104;48.642;9.008;2023-06-14T16:48:32;3.95;;;3.17;;
29006;SDS011;16104;48.642;9.008;2023-06-14T16:53:28;5.15;;;2.97;;
29006;SDS011;16104;48.642;9.008;2023-06-14T16:58:24;5.15;;;2.92;;
29006;SDS011;16104;48.642;9.008;2023-06-14T17:03:19;3.60;;;3.30;;
29006;SDS011;16104;48.642;9.008;2023-06-14T17:08:15;7.05;;;3.20;;
29006;SDS011;16104;48.642;9.008;2023-06-14T17:13:10;3.83;;;3.10;;
29006;SDS011;16104;48.642;9.008;2023-06-14T17:18:06;3.90;;;3.13;;
29006;SDS011;16104;48.642;9.008;2023-06-14T17:23:01;5.60;;;3.08;;
29006;SDS011;16104;48.642;9.008;2023-06-14T17:27:57;4.60;;;3.45;;
29006;SDS011;16104;48.642;9.008;2023-06-14T17:32:53;2.67;;;2.47;;
29006;SDS011;16104;48.642;9.008;2023-06-14T17:37:49;4.22;;;2.92;;
29006;SDS011;16104;48.642;9.008;2023-06-14T17:42:45;3.15;;;2.78;;
29006;SDS011;16104;48.642;9.008;2023-06-14T17:47:40;7.22;;;3.20;;
29006;SDS011;16104;48.642;9.008;2023-06-14T17:52:36;5.88;;;3.22;;
29006;SDS011;16104;48.642;9.008;2023-06-14T17:57:31;3.83;;;3.20;;
29006;SDS011;16104;48.642;9.008;2023-06-14T18:02:27;3.17;;;2.90;;
29006;SDS011;16104;48.642;9.008;2023-06-14T18:07:24;4.00;;;3.10;;
29006;SDS011;16104;48.642;9.008;2023-06-14T18:12:19;6.55;;;3.13;;
29006;SDS011;16104;48.642;9.008;2023-06-14T18:17:15;5.85;;;3.40;;
29006;SDS011;16104;48.642;9.008;2023-06-14T18:22:10;6.47;;;3.40;;
29006;SDS011;16104;48.642;9.008;2023-06-14T18:27:06;6.28;;;3.08;;
29006;SDS011;16104;48.642;9.008;2023-06-14T18:32:06;7.30;;;3.13;;
29006;SDS011;16104;48.642;9.008;2023-06-14T18:37:01;4.78;;;3.28;;
29006;SDS011;16104;48.642;9.008;2023-06-14T18:41:57;3.53;;;3.00;;
29006;SDS011;16104;48.642;9.008;2023-06-14T18:46:53;3.97;;;3.40;;
29006;SDS011;16104;48.642;9.008;2023-06-14T18:51:49;4.40;;;3.53;;
29006;SDS011;16104;48.642;9.008;2023-06-14T18:56:44;3.58;;;3.28;;
29006;SDS011;16104;48.642;9.008;2023-06-14T19:01:40;5.85;;;3.03;;
29006;SDS011;16104;48.642;9.008;2023-06-14T19:06:36;4.25;;;2.97;;
29006;SDS011;16104;48.642;9.008;2023-06-14T19:11:33;8.68;;;3.25;;
29006;SDS011;16104;48.642;9.008;2023-06-14T19:16:28;13.10;;;3.25;;
29006;SDS011;16104;48.642;9.008;2023-06-14T19:21:24;4.05;;;3.33;;
29006;SDS011;16104;48.642;9.008;2023-06-14T19:26:20;11.18;;;4.13;;
29006;SDS011;16104;48.642;9.008;2023-06-14T19:31:15;11.45;;;3.83;;
29006;SDS011;16104;48.642;9.008;2023-06-14T19:36:11;8.02;;;3.35;;
29006;SDS011;16104;48.642;9.008;2023-06-14T19:41:06;4.90;;;3.53;;
29006;SDS011;16104;48.642;9.008;2023-06-14T19:46:02;6.47;;;3.42;;
29006;SDS011;16104;48.642;9.008;2023-06-14T19:50:58;6.60;;;4.00;;
29006;SDS011;16104;48.642;9.008;2023-06-14T19:55:53;6.18;;;3.70;;
29006;SDS011;16104;48.642;9.008;2023-06-14T20:00:49;6.88;;;3.60;;
29006;SDS011;16104;48.642;9.008;2023-06-14T20:05:44;5.22;;;3.45;;
29006;SDS011;16104;48.642;9.008;2023-06-14T20:10:40;3.58;;;3.00;;
29006;SDS011;16104;48.642;9.008;2023-06-14T20:15:35;4.78;;;3.28;;
29006;SDS011;16104;48.642;9.008;2023-06-14T20:20:31;4.00;;;3.60;;
29006;SDS011;16104;48.642;9.008;2023-06-14T20:25:26;3.42;;;3.13;;
29006;SDS011;16104;48.642;9.008;2023-06-14T20:30:22;4.32;;;3.15;;
29006;SDS011;16104;48.642;9.008;2023-06-14T20:35:17;3.83;;;3.08;;
29006;SDS011;16104;48.642;9.008;2023-06-14T20:40:19;3.58;;;3.20;;
29006;SDS011;16104;48.642;9.008;2023-06-14T20:45:17;4.18;;;3.40;;
29006;SDS011;16104;48.642;9.008;2023-06-14T20:50:12;4.00;;;3.33;;
29006;SDS011;16104;48.642;9.008;2023-06-14T20:55:08;3.90;;;3.25;;
29006;SDS011;16104;48.642;9.008;2023-06-14T21:00:04;5.18;;;3.70;;
29006;SDS011;16104;48.642;9.008;2023-06-14T21:05:08;4.65;;;3.30;;
29006;SDS011;16104;48.642;9.008;2023-06-14T21:10:04;6.03;;;3.80;;
29006;SDS011;16104;48.642;9.008;2023-06-14T21:14:59;4.13;;;3.50;;
29006;SDS011;16104;48.642;9.008;2023-06-14T21:19:55;6.53;;;3.55;;
29006;SDS011;16104;48.642;9.008;2023-06-14T21:24:51;5.32;;;3.88;;
29006;SDS011;16104;48.642;9.008;2023-06-14T21:29:46;4.78;;;3.28;;
29006;SDS011;16104;48.642;9.008;2023-06-14T21:34:44;4.43;;;3.80;;
29006;SDS011;16104;48.642;9.008;2023-06-14T21:39:40;3.75;;;3.33;;
29006;SDS011;16104;48.642;9.008;2023-06-14T21:44:39;5.60;;;3.80;;
29006;SDS011;16104;48.642;9.008;2023-06-14T21:49:43;5.10;;;3.78;;
29006;SDS011;16104;48.642;9.008;2023-06-14T21:54:42;3.70;;;3.33;;
29006;SDS011;16104;48.642;9.008;2023-06-14T21:59:38;6.53;;;3.25;;
29006;SDS011;16104;48.642;9.008;2023-06-14T22:04:33;5.50;;;3.80;;
29006;SDS011;16104;48.642;9.008;2023-06-14T22:09:30;6.45;;;3.92;;
29006;SDS011;16104;48.642;9.008;2023-06-14T22:14:25;7.53;;;4.20;;
29006;SDS011;16104;48.642;9.008;2023-06-14T22:19:25;6.22;;;4.60;;
29006;SDS011;16104;48.642;9.008;2023-06-14T22:24:22;8.20;;;4.50;;
29006;SDS011;16104;48.642;9.008;2023-06-14T22:29:20;4.03;;;3.63;;
29006;SDS011;16104;48.642;9.008;2023-06-14T22:34:18;5.10;;;3.58;;
29006;SDS011;16104;48.642;9.008;2023-06-14T22:39:13;4.30;;;3.30;;
29006;SDS011;16104;48.642;9.008;2023-06-14T22:44:09;5.15;;;3.53;;
29006;SDS011;16104;48.642;9.008;2023-06-14T22:49:06;6.25;;;3.47;;
29006;SDS011;16104;48.642;9.008;2023-06-14T22:54:02;3.72;;;3.42;;
29006;SDS011;16104;48.642;9.008;2023-06-14T22:58:57;5.60;;;4.10;;
29006;SDS011;16104;48.642;9.008;2023-06-14T23:03:57;4.25;;;3.60;;
29006;SDS011;16104;48.642;9.008;2023-06-14T23:08:52;4.90;;;3.63;;
29006;SDS011;16104;48.642;9.008;2023-06-14T23:13:49;4.43;;;3.63;;
29006;SDS011;16104;48.642;9.008;2023-06-14T23:18:51;4.07;;;3.67;;
29006;SDS011;16104;48.642;9.008;2023-06-14T23:23:46;4.75;;;4.25;;
29006;SDS011;16104;48.642;9.008;2023-06-14T23:28:43;6.95;;;4.07;;
29006;SDS011;16104;48.642;9.008;2023-06-14T23:33:40;3.97;;;3.58;;
29006;SDS011;16104;48.642;9.008;2023-06-14T23:38:36;6.20;;;3.88;;
29006;SDS011;16104;48.642;9.008;2023-06-14T23:43:42;5.97;;;4.22;;
29006;SDS011;16104;48.642;9.008;2023-06-14T23:48:38;4.95;;;4.00;;
29006;SDS011;16104;48.642;9.008;2023-06-14T23:53:33;3.92;;;3.55;;
29006;SDS011;16104;48.642;9.008;2023-06-14T23:58:30;4.93;;;3.70;;
